sensor_id;sensor_type;location;lat;lon;timestamp;temperature;humidity
10312;DHT22;5201;48.776;9.128;2023-05-29T00:01:13;16.70;94.90
10312;DHT22;5201;48.776;9.128;2023-05-29T00:03:38;16.70;94.60
10312;DHT22;5201;48.776;9.128;2023-05-29T00:06:04;16.60;94.50
10312;DHT22;5201;48.776;9.128;2023-05-29T00:08:31;16.50;94.80
10312;DHT22;5201;48.776;9.128;2023-05-29T00:10:57;16.40;95.10
10312;DHT22;5201;48.776;9.128;2023-05-29T00:13:23;16.40;94.90
10312;DHT22;5201;48.776;9.128;2023-05-29T00:15:49;16.40;95.50
10312;DHT22;5201;48.776;9.128;2023-05-29T00:18:14;16.30;95.80
10312;DHT22;5201;48.776;9.128;2023-05-29T00:20:40;16.30;95.90
10312;DHT22;5201;48.776;9.128;2023-05-29T00:23:05;16.30;95.20
10312;DHT22;5201;48.776;9.128;2023-05-29T00:25:32;16.30;95.30
10312;DHT22;5201;48.776;9.128;2023-05-29T00:27:57;16.30;95.30
10312;DHT22;5201;48.776;9.128;2023-05-29T00:30:23;15.50;95.10
10312;DHT22;5201;48.776;9.128;2023-05-29T00:32:48;16.20;95.80
10312;DHT22;5201;48.776;9.128;2023-05-29T00:35:15;16.20;95.80
10312;DHT22;5201;48.776;9.128;2023-05-29T00:37:40;16.10;95.40
10312;DHT22;5201;48.776;9.128;2023-05-29T00:40:06;16.00;95.40
10312;DHT22;5201;48.776;9.128;2023-05-29T00:42:32;16.10;95.80
10312;DHT22;5201;48.776;9.128;2023-05-29T00:44:58;16.00;95.70
10312;DHT22;5201;48.776;9.128;2023-05-29T00:47:24;16.00;96.10
10312;DHT22;5201;48.776;9.128;2023-05-29T00:49:50;16.10;95.80
10312;DHT22;5201;48.776;9.128;2023-05-29T00:52:17;16.00;95.80
10312;DHT22;5201;48.776;9.128;2023-05-29T00:54:45;16.00;96.30
10312;DHT22;5201;48.776;9.128;2023-05-29T00:57:12;15.90;96.10
10312;DHT22;5201;48.776;9.128;2023-05-29T00:59:40;15.90;96.30
10312;DHT22;5201;48.776;9.128;2023-05-29T01:02:06;15.90;95.80
10312;DHT22;5201;48.776;9.128;2023-05-29T01:04:32;16.00;95.80
10312;DHT22;5201;48.776;9.128;2023-05-29T01:07:00;15.90;95.80
10312;DHT22;5201;48.776;9.128;2023-05-29T01:09:31;15.90;96.00
10312;DHT22;5201;48.776;9.128;2023-05-29T01:28:18;15.80;96.30
10312;DHT22;5201;48.776;9.128;2023-05-29T01:30:45;16.10;96.30
10312;DHT22;5201;48.776;9.128;2023-05-29T01:33:11;15.70;96.20
10312;DHT22;5201;48.776;9.128;2023-05-29T01:35:37;15.80;96.60
10312;DHT22;5201;48.776;9.128;2023-05-29T01:38:03;15.50;96.50
10312;DHT22;5201;48.776;9.128;2023-05-29T01:40:28;15.50;96.80
10312;DHT22;5201;48.776;9.128;2023-05-29T01:42:54;15.40;96.60
10312;DHT22;5201;48.776;9.128;2023-05-29T01:45:20;15.40;96.70
10312;DHT22;5201;48.776;9.128;2023-05-29T01:47:46;15.40;97.00
10312;DHT22;5201;48.776;9.128;2023-05-29T01:50:13;15.40;97.00
10312;DHT22;5201;48.776;9.128;2023-05-29T01:52:40;15.30;96.80
10312;DHT22;5201;48.776;9.128;2023-05-29T01:55:06;15.30;96.90
10312;DHT22;5201;48.776;9.128;2023-05-29T01:57:32;15.30;96.80
10312;DHT22;5201;48.776;9.128;2023-05-29T01:59:58;15.30;96.70
10312;DHT22;5201;48.776;9.128;2023-05-29T02:02:24;15.60;96.90
10312;DHT22;5201;48.776;9.128;2023-05-29T02:04:49;15.30;96.90
10312;DHT22;5201;48.776;9.128;2023-05-29T02:07:15;15.30;97.30
10312;DHT22;5201;48.776;9.128;2023-05-29T02:09:41;15.30;97.30
10312;DHT22;5201;48.776;9.128;2023-05-29T02:12:06;15.20;97.30
10312;DHT22;5201;48.776;9.128;2023-05-29T02:14:33;15.10;97.40
10312;DHT22;5201;48.776;9.128;2023-05-29T02:16:59;15.20;97.30
10312;DHT22;5201;48.776;9.128;2023-05-29T02:19:26;15.50;97.40
10312;DHT22;5201;48.776;9.128;2023-05-29T02:21:52;15.00;97.70
10312;DHT22;5201;48.776;9.128;2023-05-29T02:24:18;15.50;98.00
10312;DHT22;5201;48.776;9.128;2023-05-29T02:26:44;14.90;97.60
10312;DHT22;5201;48.776;9.128;2023-05-29T02:29:09;15.30;98.10
10312;DHT22;5201;48.776;9.128;2023-05-29T02:31:36;14.90;98.00
10312;DHT22;5201;48.776;9.128;2023-05-29T02:34:01;14.90;98.00
10312;DHT22;5201;48.776;9.128;2023-05-29T02:36:27;15.00;98.20
10312;DHT22;5201;48.776;9.128;2023-05-29T02:38:53;14.70;98.10
10312;DHT22;5201;48.776;9.128;2023-05-29T02:41:18;15.00;98.10
10312;DHT22;5201;48.776;9.128;2023-05-29T02:43:44;14.90;98.10
10312;DHT22;5201;48.776;9.128;2023-05-29T02:46:09;14.70;98.10
10312;DHT22;5201;48.776;9.128;2023-05-29T02:48:35;14.70;98.30
10312;DHT22;5201;48.776;9.128;2023-05-29T02:51:00;15.20;98.40
10312;DHT22;5201;48.776;9.128;2023-05-29T02:53:26;15.20;97.90
10312;DHT22;5201;48.776;9.128;2023-05-29T02:55:52;14.90;97.60
10312;DHT22;5201;48.776;9.128;2023-05-29T02:58:17;14.70;98.00
10312;DHT22;5201;48.776;9.128;2023-05-29T03:00:44;14.80;98.10
10312;DHT22;5201;48.776;9.128;2023-05-29T03:03:10;14.90;98.20
10312;DHT22;5201;48.776;9.128;2023-05-29T03:05:36;14.80;98.20
10312;DHT22;5201;48.776;9.128;2023-05-29T03:08:02;14.80;98.10
10312;DHT22;5201;48.776;9.128;2023-05-29T03:10:27;14.60;98.20
10312;DHT22;5201;48.776;9.128;2023-05-29T03:12:53;14.80;98.60
10312;DHT22;5201;48.776;9.128;2023-05-29T03:15:19;14.60;98.60
10312;DHT22;5201;48.776;9.128;2023-05-29T03:17:46;14.60;98.90
10312;DHT22;5201;48.776;9.128;2023-05-29T03:20:12;15.20;99.50
10312;DHT22;5201;48.776;9.128;2023-05-29T03:22:38;14.40;99.20
10312;DHT22;5201;48.776;9.128;2023-05-29T03:25:04;14.30;99.20
10312;DHT22;5201;48.776;9.128;2023-05-29T03:27:30;14.40;99.20
10312;DHT22;5201;48.776;9.128;2023-05-29T03:29:56;14.60;99.50
10312;DHT22;5201;48.776;9.128;2023-05-29T03:32:23;14.90;99.70
10312;DHT22;5201;48.776;9.128;2023-05-29T03:34:48;14.40;99.40
10312;DHT22;5201;48.776;9.128;2023-05-29T03:37:14;14.30;99.20
10312;DHT22;5201;48.776;9.128;2023-05-29T03:39:40;14.30;99.40
10312;DHT22;5201;48.776;9.128;2023-05-29T03:42:05;14.70;99.70
10312;DHT22;5201;48.776;9.128;2023-05-29T03:44:31;14.30;99.60
10312;DHT22;5201;48.776;9.128;2023-05-29T03:46:57;14.20;99.60
10312;DHT22;5201;48.776;9.128;2023-05-29T03:49:22;14.30;99.80
10312;DHT22;5201;48.776;9.128;2023-05-29T03:51:49;14.70;99.90
10312;DHT22;5201;48.776;9.128;2023-05-29T03:54:15;14.30;99.90
10312;DHT22;5201;48.776;9.128;2023-05-29T03:56:40;14.50;99.90
10312;DHT22;5201;48.776;9.128;2023-05-29T03:59:06;14.70;99.70
10312;DHT22;5201;48.776;9.128;2023-05-29T04:01:32;14.90;99.50
10312;DHT22;5201;48.776;9.128;2023-05-29T04:03:57;15.20;99.20
10312;DHT22;5201;48.776;9.128;2023-05-29T04:06:23;15.40;99.30
10312;DHT22;5201;48.776;9.128;2023-05-29T04:08:48;16.00;99.20
10312;DHT22;5201;48.776;9.128;2023-05-29T04:11:14;15.90;98.60
10312;DHT22;5201;48.776;9.128;2023-05-29T04:13:40;16.20;98.90
10312;DHT22;5201;48.776;9.128;2023-05-29T04:16:06;16.40;98.30
10312;DHT22;5201;48.776;9.128;2023-05-29T04:18:32;16.50;97.90
10312;DHT22;5201;48.776;9.128;2023-05-29T04:20:57;16.80;97.60
10312;DHT22;5201;48.776;9.128;2023-05-29T04:23:23;17.00;97.10
10312;DHT22;5201;48.776;9.128;2023-05-29T04:25:49;17.20;96.60
10312;DHT22;5201;48.776;9.128;2023-05-29T04:28:16;17.10;96.90
10312;DHT22;5201;48.776;9.128;2023-05-29T04:30:42;17.00;97.10
10312;DHT22;5201;48.776;9.128;2023-05-29T04:33:08;16.90;97.30
10312;DHT22;5201;48.776;9.128;2023-05-29T04:35:35;16.70;97.40
10312;DHT22;5201;48.776;9.128;2023-05-29T04:38:01;16.60;97.50
10312;DHT22;5201;48.776;9.128;2023-05-29T04:40:26;16.70;97.80
10312;DHT22;5201;48.776;9.128;2023-05-29T04:42:52;16.60;98.00
10312;DHT22;5201;48.776;9.128;2023-05-29T04:45:19;16.20;98.20
10312;DHT22;5201;48.776;9.128;2023-05-29T04:47:46;16.20;98.70
10312;DHT22;5201;48.776;9.128;2023-05-29T04:50:15;16.10;98.70
10312;DHT22;5201;48.776;9.128;2023-05-29T04:52:41;16.10;99.10
10312;DHT22;5201;48.776;9.128;2023-05-29T04:55:09;16.10;99.30
10312;DHT22;5201;48.776;9.128;2023-05-29T04:57:35;16.10;99.20
10312;DHT22;5201;48.776;9.128;2023-05-29T05:00:01;16.10;99.30
10312;DHT22;5201;48.776;9.128;2023-05-29T05:02:30;16.50;99.30
10312;DHT22;5201;48.776;9.128;2023-05-29T05:04:55;16.10;99.10
10312;DHT22;5201;48.776;9.128;2023-05-29T05:07:22;16.10;99.20
10312;DHT22;5201;48.776;9.128;2023-05-29T05:09:47;16.30;99.40
10312;DHT22;5201;48.776;9.128;2023-05-29T05:12:13;16.20;99.30
10312;DHT22;5201;48.776;9.128;2023-05-29T05:14:38;16.40;99.20
10312;DHT22;5201;48.776;9.128;2023-05-29T05:17:04;16.40;99.10
10312;DHT22;5201;48.776;9.128;2023-05-29T05:19:30;16.40;99.00
10312;DHT22;5201;48.776;9.128;2023-05-29T05:21:55;16.30;98.80
10312;DHT22;5201;48.776;9.128;2023-05-29T05:24:21;16.40;98.90
10312;DHT22;5201;48.776;9.128;2023-05-29T05:26:47;16.40;99.10
10312;DHT22;5201;48.776;9.128;2023-05-29T05:29:12;16.50;99.10
10312;DHT22;5201;48.776;9.128;2023-05-29T05:31:39;17.10;99.40
10312;DHT22;5201;48.776;9.128;2023-05-29T05:34:04;16.70;99.00
10312;DHT22;5201;48.776;9.128;2023-05-29T05:36:30;16.80;98.90
10312;DHT22;5201;48.776;9.128;2023-05-29T05:38:56;16.80;98.90
10312;DHT22;5201;48.776;9.128;2023-05-29T05:41:22;16.80;98.80
10312;DHT22;5201;48.776;9.128;2023-05-29T05:43:47;16.90;98.80
10312;DHT22;5201;48.776;9.128;2023-05-29T05:46:13;16.90;98.80
10312;DHT22;5201;48.776;9.128;2023-05-29T05:48:40;17.00;98.50
10312;DHT22;5201;48.776;9.128;2023-05-29T05:51:06;17.10;96.70
10312;DHT22;5201;48.776;9.128;2023-05-29T05:53:31;17.20;96.70
10312;DHT22;5201;48.776;9.128;2023-05-29T05:55:57;17.30;96.50
10312;DHT22;5201;48.776;9.128;2023-05-29T05:58:23;17.30;96.00
10312;DHT22;5201;48.776;9.128;2023-05-29T06:00:48;17.40;96.70
10312;DHT22;5201;48.776;9.128;2023-05-29T06:03:17;18.10;96.70
10312;DHT22;5201;48.776;9.128;2023-05-29T06:05:43;19.30;95.70
10312;DHT22;5201;48.776;9.128;2023-05-29T06:08:09;20.50;94.40
10312;DHT22;5201;48.776;9.128;2023-05-29T06:10:34;21.60;92.90
10312;DHT22;5201;48.776;9.128;2023-05-29T06:13:00;22.50;91.80
10312;DHT22;5201;48.776;9.128;2023-05-29T06:15:26;23.40;91.20
10312;DHT22;5201;48.776;9.128;2023-05-29T06:17:51;24.10;89.40
10312;DHT22;5201;48.776;9.128;2023-05-29T06:20:17;24.70;90.10
10312;DHT22;5201;48.776;9.128;2023-05-29T06:22:43;25.20;87.60
10312;DHT22;5201;48.776;9.128;2023-05-29T06:25:08;25.30;86.90
10312;DHT22;5201;48.776;9.128;2023-05-29T06:27:35;25.60;87.70
10312;DHT22;5201;48.776;9.128;2023-05-29T06:30:00;25.90;85.50
10312;DHT22;5201;48.776;9.128;2023-05-29T06:32:26;26.00;84.40
10312;DHT22;5201;48.776;9.128;2023-05-29T06:34:53;26.10;84.40
10312;DHT22;5201;48.776;9.128;2023-05-29T06:37:19;26.20;83.10
10312;DHT22;5201;48.776;9.128;2023-05-29T06:39:45;26.30;82.90
10312;DHT22;5201;48.776;9.128;2023-05-29T06:42:11;26.50;83.30
10312;DHT22;5201;48.776;9.128;2023-05-29T06:44:36;26.80;84.30
10312;DHT22;5201;48.776;9.128;2023-05-29T06:47:02;26.90;82.10
10312;DHT22;5201;48.776;9.128;2023-05-29T06:49:28;27.10;81.60
10312;DHT22;5201;48.776;9.128;2023-05-29T06:51:53;27.20;82.60
10312;DHT22;5201;48.776;9.128;2023-05-29T06:54:19;27.10;82.60
10312;DHT22;5201;48.776;9.128;2023-05-29T06:56:44;27.00;82.90
10312;DHT22;5201;48.776;9.128;2023-05-29T06:59:10;27.00;82.10
10312;DHT22;5201;48.776;9.128;2023-05-29T07:01:35;26.90;81.90
10312;DHT22;5201;48.776;9.128;2023-05-29T07:04:01;27.20;82.40
10312;DHT22;5201;48.776;9.128;2023-05-29T07:06:27;27.40;81.40
10312;DHT22;5201;48.776;9.128;2023-05-29T07:08:52;27.60;81.30
10312;DHT22;5201;48.776;9.128;2023-05-29T07:11:18;27.60;81.50
10312;DHT22;5201;48.776;9.128;2023-05-29T07:13:43;28.10;81.30
10312;DHT22;5201;48.776;9.128;2023-05-29T07:16:09;28.30;80.50
10312;DHT22;5201;48.776;9.128;2023-05-29T07:18:35;28.70;80.80
10312;DHT22;5201;48.776;9.128;2023-05-29T07:21:00;28.80;79.00
10312;DHT22;5201;48.776;9.128;2023-05-29T07:23:26;29.10;79.00
10312;DHT22;5201;48.776;9.128;2023-05-29T07:25:52;29.30;77.60
10312;DHT22;5201;48.776;9.128;2023-05-29T07:28:17;29.60;76.80
10312;DHT22;5201;48.776;9.128;2023-05-29T07:30:43;29.80;77.50
10312;DHT22;5201;48.776;9.128;2023-05-29T07:33:09;30.00;76.60
10312;DHT22;5201;48.776;9.128;2023-05-29T07:35:35;30.10;75.40
10312;DHT22;5201;48.776;9.128;2023-05-29T07:38:00;30.10;75.40
10312;DHT22;5201;48.776;9.128;2023-05-29T07:40:26;30.40;75.70
10312;DHT22;5201;48.776;9.128;2023-05-29T07:42:52;30.60;75.30
10312;DHT22;5201;48.776;9.128;2023-05-29T07:45:17;30.70;75.10
10312;DHT22;5201;48.776;9.128;2023-05-29T07:47:43;30.70;73.70
10312;DHT22;5201;48.776;9.128;2023-05-29T07:50:09;30.60;74.60
10312;DHT22;5201;48.776;9.128;2023-05-29T07:52:35;30.70;76.30
10312;DHT22;5201;48.776;9.128;2023-05-29T07:55:01;30.80;74.70
10312;DHT22;5201;48.776;9.128;2023-05-29T07:57:27;30.70;75.40
10312;DHT22;5201;48.776;9.128;2023-05-29T07:59:53;31.00;75.70
10312;DHT22;5201;48.776;9.128;2023-05-29T08:02:19;31.40;74.80
10312;DHT22;5201;48.776;9.128;2023-05-29T08:04:45;31.50;72.20
10312;DHT22;5201;48.776;9.128;2023-05-29T08:07:10;31.40;74.50
10312;DHT22;5201;48.776;9.128;2023-05-29T08:09:36;31.40;73.00
10312;DHT22;5201;48.776;9.128;2023-05-29T08:12:02;31.30;74.00
10312;DHT22;5201;48.776;9.128;2023-05-29T08:14:27;31.30;73.90
10312;DHT22;5201;48.776;9.128;2023-05-29T08:16:53;31.20;69.60
10312;DHT22;5201;48.776;9.128;2023-05-29T08:19:19;31.20;72.10
10312;DHT22;5201;48.776;9.128;2023-05-29T08:21:45;31.20;72.20
10312;DHT22;5201;48.776;9.128;2023-05-29T08:24:11;31.30;72.20
10312;DHT22;5201;48.776;9.128;2023-05-29T08:26:36;31.20;70.20
10312;DHT22;5201;48.776;9.128;2023-05-29T08:29:02;30.90;70.70
10312;DHT22;5201;48.776;9.128;2023-05-29T08:31:29;30.70;69.80
10312;DHT22;5201;48.776;9.128;2023-05-29T08:33:55;30.60;71.80
10312;DHT22;5201;48.776;9.128;2023-05-29T08:36:21;30.30;72.00
10312;DHT22;5201;48.776;9.128;2023-05-29T08:38:48;30.40;73.60
10312;DHT22;5201;48.776;9.128;2023-05-29T08:41:20;30.60;72.00
10312;DHT22;5201;48.776;9.128;2023-05-29T08:43:48;30.80;73.00
10312;DHT22;5201;48.776;9.128;2023-05-29T08:46:15;31.20;72.50
10312;DHT22;5201;48.776;9.128;2023-05-29T08:48:47;31.20;71.60
10312;DHT22;5201;48.776;9.128;2023-05-29T08:51:14;31.10;70.80
10312;DHT22;5201;48.776;9.128;2023-05-29T08:53:40;30.70;72.20
10312;DHT22;5201;48.776;9.128;2023-05-29T08:56:06;30.20;70.50
10312;DHT22;5201;48.776;9.128;2023-05-29T08:58:32;29.70;71.40
10312;DHT22;5201;48.776;9.128;2023-05-29T09:00:58;29.40;73.90
10312;DHT22;5201;48.776;9.128;2023-05-29T09:03:25;29.40;74.60
10312;DHT22;5201;48.776;9.128;2023-05-29T09:05:50;29.50;73.70
10312;DHT22;5201;48.776;9.128;2023-05-29T09:08:16;29.70;73.60
10312;DHT22;5201;48.776;9.128;2023-05-29T09:10:42;30.00;73.50
10312;DHT22;5201;48.776;9.128;2023-05-29T09:13:12;29.70;73.00
10312;DHT22;5201;48.776;9.128;2023-05-29T09:15:39;29.70;74.30
10312;DHT22;5201;48.776;9.128;2023-05-29T09:18:08;29.90;74.40
10312;DHT22;5201;48.776;9.128;2023-05-29T09:20:34;29.70;73.80
10312;DHT22;5201;48.776;9.128;2023-05-29T09:23:04;29.90;73.10
10312;DHT22;5201;48.776;9.128;2023-05-29T09:25:32;29.90;73.80
10312;DHT22;5201;48.776;9.128;2023-05-29T09:27:59;29.90;74.10
10312;DHT22;5201;48.776;9.128;2023-05-29T09:30:39;29.60;72.90
10312;DHT22;5201;48.776;9.128;2023-05-29T09:33:07;29.10;74.60
10312;DHT22;5201;48.776;9.128;2023-05-29T09:35:37;28.90;75.80
10312;DHT22;5201;48.776;9.128;2023-05-29T09:38:04;29.10;76.30
10312;DHT22;5201;48.776;9.128;2023-05-29T09:40:31;29.50;76.10
10312;DHT22;5201;48.776;9.128;2023-05-29T09:43:15;29.60;74.20
10312;DHT22;5201;48.776;9.128;2023-05-29T09:45:43;29.30;74.90
10312;DHT22;5201;48.776;9.128;2023-05-29T09:48:14;29.10;75.30
10312;DHT22;5201;48.776;9.128;2023-05-29T09:50:40;29.30;76.70
10312;DHT22;5201;48.776;9.128;2023-05-29T09:53:20;29.50;76.10
10312;DHT22;5201;48.776;9.128;2023-05-29T09:55:49;29.60;72.70
10312;DHT22;5201;48.776;9.128;2023-05-29T09:58:17;29.20;72.90
10312;DHT22;5201;48.776;9.128;2023-05-29T10:00:43;28.10;75.60
10312;DHT22;5201;48.776;9.128;2023-05-29T10:03:10;28.40;76.60
10312;DHT22;5201;48.776;9.128;2023-05-29T10:05:38;28.30;75.90
10312;DHT22;5201;48.776;9.128;2023-05-29T10:08:05;28.30;75.30
10312;DHT22;5201;48.776;9.128;2023-05-29T10:10:34;28.00;75.30
10312;DHT22;5201;48.776;9.128;2023-05-29T10:13:01;27.80;75.60
10312;DHT22;5201;48.776;9.128;2023-05-29T10:15:31;27.90;74.80
10312;DHT22;5201;48.776;9.128;2023-05-29T10:18:05;28.00;75.60
10312;DHT22;5201;48.776;9.128;2023-05-29T10:20:35;28.00;75.50
10312;DHT22;5201;48.776;9.128;2023-05-29T10:23:02;27.90;76.50
10312;DHT22;5201;48.776;9.128;2023-05-29T10:25:30;28.00;76.80
10312;DHT22;5201;48.776;9.128;2023-05-29T10:27:57;28.20;77.00
10312;DHT22;5201;48.776;9.128;2023-05-29T10:38:32;27.20;73.50
10312;DHT22;5201;48.776;9.128;2023-05-29T10:43:49;27.30;73.60
10312;DHT22;5201;48.776;9.128;2023-05-29T10:46:14;27.50;74.30
10312;DHT22;5201;48.776;9.128;2023-05-29T10:48:41;27.90;73.30
10312;DHT22;5201;48.776;9.128;2023-05-29T10:51:07;28.00;72.10
10312;DHT22;5201;48.776;9.128;2023-05-29T10:53:33;27.90;72.20
10312;DHT22;5201;48.776;9.128;2023-05-29T10:55:59;27.70;72.20
10312;DHT22;5201;48.776;9.128;2023-05-29T10:58:27;27.50;71.60
10312;DHT22;5201;48.776;9.128;2023-05-29T11:00:53;27.20;72.60
10312;DHT22;5201;48.776;9.128;2023-05-29T11:03:34;27.10;72.70
10312;DHT22;5201;48.776;9.128;2023-05-29T11:06:07;27.10;73.90
10312;DHT22;5201;48.776;9.128;2023-05-29T11:08:47;27.00;73.60
10312;DHT22;5201;48.776;9.128;2023-05-29T11:11:16;27.00;72.80
10312;DHT22;5201;48.776;9.128;2023-05-29T11:13:57;27.10;71.70
10312;DHT22;5201;48.776;9.128;2023-05-29T11:18:52;27.10;73.40
10312;DHT22;5201;48.776;9.128;2023-05-29T11:23:59;26.90;72.60
10312;DHT22;5201;48.776;9.128;2023-05-29T11:26:28;26.90;75.60
10312;DHT22;5201;48.776;9.128;2023-05-29T11:29:00;27.20;74.10
10312;DHT22;5201;48.776;9.128;2023-05-29T11:31:28;27.10;71.10
10312;DHT22;5201;48.776;9.128;2023-05-29T11:33:59;27.20;72.40
10312;DHT22;5201;48.776;9.128;2023-05-29T11:36:26;27.00;71.70
10312;DHT22;5201;48.776;9.128;2023-05-29T11:38:53;26.80;71.10
10312;DHT22;5201;48.776;9.128;2023-05-29T11:41:19;26.70;71.70
10312;DHT22;5201;48.776;9.128;2023-05-29T11:43:51;26.80;74.70
10312;DHT22;5201;48.776;9.128;2023-05-29T11:46:20;26.90;70.80
10312;DHT22;5201;48.776;9.128;2023-05-29T11:48:47;26.70;70.00
10312;DHT22;5201;48.776;9.128;2023-05-29T11:51:13;26.90;70.30
10312;DHT22;5201;48.776;9.128;2023-05-29T11:53:43;26.90;71.60
10312;DHT22;5201;48.776;9.128;2023-05-29T11:56:12;26.80;71.00
10312;DHT22;5201;48.776;9.128;2023-05-29T11:58:41;26.70;69.20
10312;DHT22;5201;48.776;9.128;2023-05-29T12:01:08;26.60;70.70
10312;DHT22;5201;48.776;9.128;2023-05-29T12:03:41;26.50;71.30
10312;DHT22;5201;48.776;9.128;2023-05-29T12:06:08;26.40;70.50
10312;DHT22;5201;48.776;9.128;2023-05-29T12:08:36;26.20;67.50
10312;DHT22;5201;48.776;9.128;2023-05-29T12:11:02;26.00;68.50
10312;DHT22;5201;48.776;9.128;2023-05-29T12:13:28;25.90;68.50
10312;DHT22;5201;48.776;9.128;2023-05-29T12:16:04;25.80;69.60
10312;DHT22;5201;48.776;9.128;2023-05-29T12:18:30;25.80;69.90
10312;DHT22;5201;48.776;9.128;2023-05-29T12:21:03;25.80;69.70
10312;DHT22;5201;48.776;9.128;2023-05-29T12:23:29;25.60;69.60
10312;DHT22;5201;48.776;9.128;2023-05-29T12:25:56;25.50;70.10
10312;DHT22;5201;48.776;9.128;2023-05-29T12:28:22;25.30;69.60
10312;DHT22;5201;48.776;9.128;2023-05-29T12:30:48;25.20;68.90
10312;DHT22;5201;48.776;9.128;2023-05-29T12:33:40;25.20;69.90
10312;DHT22;5201;48.776;9.128;2023-05-29T12:36:08;25.20;67.60
10312;DHT22;5201;48.776;9.128;2023-05-29T12:38:49;25.20;69.60
10312;DHT22;5201;48.776;9.128;2023-05-29T12:41:29;25.10;70.50
10312;DHT22;5201;48.776;9.128;2023-05-29T12:43:56;25.00;69.10
10312;DHT22;5201;48.776;9.128;2023-05-29T12:46:23;25.00;67.80
10312;DHT22;5201;48.776;9.128;2023-05-29T12:48:48;25.10;68.50
10312;DHT22;5201;48.776;9.128;2023-05-29T12:51:17;25.10;69.00
10312;DHT22;5201;48.776;9.128;2023-05-29T12:53:43;24.90;67.70
10312;DHT22;5201;48.776;9.128;2023-05-29T12:56:08;24.90;68.60
10312;DHT22;5201;48.776;9.128;2023-05-29T12:58:34;24.90;68.50
10312;DHT22;5201;48.776;9.128;2023-05-29T13:01:00;24.90;69.40
10312;DHT22;5201;48.776;9.128;2023-05-29T13:03:26;25.00;68.60
10312;DHT22;5201;48.776;9.128;2023-05-29T13:05:52;24.90;68.10
10312;DHT22;5201;48.776;9.128;2023-05-29T13:08:19;24.90;67.90
10312;DHT22;5201;48.776;9.128;2023-05-29T13:10:45;24.90;66.80
10312;DHT22;5201;48.776;9.128;2023-05-29T13:13:11;24.80;62.70
10312;DHT22;5201;48.776;9.128;2023-05-29T13:15:37;24.70;63.90
10312;DHT22;5201;48.776;9.128;2023-05-29T13:18:05;24.70;65.20
10312;DHT22;5201;48.776;9.128;2023-05-29T13:20:31;24.70;65.00
10312;DHT22;5201;48.776;9.128;2023-05-29T13:22:57;24.70;64.40
10312;DHT22;5201;48.776;9.128;2023-05-29T13:25:23;24.70;64.00
10312;DHT22;5201;48.776;9.128;2023-05-29T13:27:51;24.70;65.10
10312;DHT22;5201;48.776;9.128;2023-05-29T13:30:17;24.80;65.90
10312;DHT22;5201;48.776;9.128;2023-05-29T13:32:43;24.80;65.60
10312;DHT22;5201;48.776;9.128;2023-05-29T13:35:09;24.70;66.10
10312;DHT22;5201;48.776;9.128;2023-05-29T13:37:38;24.80;68.30
10312;DHT22;5201;48.776;9.128;2023-05-29T13:40:05;24.80;67.90
10312;DHT22;5201;48.776;9.128;2023-05-29T13:42:32;24.80;68.50
10312;DHT22;5201;48.776;9.128;2023-05-29T13:44:58;24.70;68.10
10312;DHT22;5201;48.776;9.128;2023-05-29T13:47:23;24.80;67.20
10312;DHT22;5201;48.776;9.128;2023-05-29T13:49:51;25.00;65.90
10312;DHT22;5201;48.776;9.128;2023-05-29T13:52:17;25.00;66.90
10312;DHT22;5201;48.776;9.128;2023-05-29T13:54:43;24.90;67.20
10312;DHT22;5201;48.776;9.128;2023-05-29T13:57:08;24.90;67.20
10312;DHT22;5201;48.776;9.128;2023-05-29T13:59:34;24.90;66.60
10312;DHT22;5201;48.776;9.128;2023-05-29T14:02:01;25.00;65.30
10312;DHT22;5201;48.776;9.128;2023-05-29T14:04:29;24.80;66.50
10312;DHT22;5201;48.776;9.128;2023-05-29T14:06:55;24.90;67.40
10312;DHT22;5201;48.776;9.128;2023-05-29T14:09:21;24.80;66.90
10312;DHT22;5201;48.776;9.128;2023-05-29T14:11:58;24.80;67.20
10312;DHT22;5201;48.776;9.128;2023-05-29T14:14:25;24.90;65.50
10312;DHT22;5201;48.776;9.128;2023-05-29T14:16:51;24.90;64.80
10312;DHT22;5201;48.776;9.128;2023-05-29T14:19:17;24.70;65.10
10312;DHT22;5201;48.776;9.128;2023-05-29T14:21:43;24.70;65.00
10312;DHT22;5201;48.776;9.128;2023-05-29T14:24:09;24.80;66.60
10312;DHT22;5201;48.776;9.128;2023-05-29T14:26:34;24.90;66.10
10312;DHT22;5201;48.776;9.128;2023-05-29T14:29:01;24.90;67.40
10312;DHT22;5201;48.776;9.128;2023-05-29T14:31:26;24.90;67.50
10312;DHT22;5201;48.776;9.128;2023-05-29T14:33:52;24.80;68.40
10312;DHT22;5201;48.776;9.128;2023-05-29T14:36:17;25.00;67.80
10312;DHT22;5201;48.776;9.128;2023-05-29T14:38:43;24.90;67.70
10312;DHT22;5201;48.776;9.128;2023-05-29T14:41:10;24.90;67.40
10312;DHT22;5201;48.776;9.128;2023-05-29T14:43:37;24.90;68.70
10312;DHT22;5201;48.776;9.128;2023-05-29T14:46:03;24.90;69.20
10312;DHT22;5201;48.776;9.128;2023-05-29T14:48:30;24.80;68.70
10312;DHT22;5201;48.776;9.128;2023-05-29T14:50:55;24.80;68.30
10312;DHT22;5201;48.776;9.128;2023-05-29T14:53:21;24.80;68.20
10312;DHT22;5201;48.776;9.128;2023-05-29T14:55:48;24.70;68.80
10312;DHT22;5201;48.776;9.128;2023-05-29T14:58:14;24.80;69.20
10312;DHT22;5201;48.776;9.128;2023-05-29T15:00:40;24.90;68.30
10312;DHT22;5201;48.776;9.128;2023-05-29T15:03:05;24.90;69.50
10312;DHT22;5201;48.776;9.128;2023-05-29T15:05:31;24.90;69.40
10312;DHT22;5201;48.776;9.128;2023-05-29T15:07:56;24.90;69.60
10312;DHT22;5201;48.776;9.128;2023-05-29T15:10:23;25.00;69.50
10312;DHT22;5201;48.776;9.128;2023-05-29T15:12:50;24.80;69.60
10312;DHT22;5201;48.776;9.128;2023-05-29T15:15:25;24.80;70.70
10312;DHT22;5201;48.776;9.128;2023-05-29T15:17:52;24.90;69.40
10312;DHT22;5201;48.776;9.128;2023-05-29T15:20:24;24.90;69.50
10312;DHT22;5201;48.776;9.128;2023-05-29T15:22:50;24.90;68.40
10312;DHT22;5201;48.776;9.128;2023-05-29T15:25:17;24.90;68.30
10312;DHT22;5201;48.776;9.128;2023-05-29T15:27:43;24.80;68.40
10312;DHT22;5201;48.776;9.128;2023-05-29T15:30:17;24.70;68.90
10312;DHT22;5201;48.776;9.128;2023-05-29T15:32:44;24.70;69.70
10312;DHT22;5201;48.776;9.128;2023-05-29T15:35:12;24.70;70.30
10312;DHT22;5201;48.776;9.128;2023-05-29T15:37:38;24.80;69.90
10312;DHT22;5201;48.776;9.128;2023-05-29T15:40:04;24.80;70.70
10312;DHT22;5201;48.776;9.128;2023-05-29T15:42:31;24.80;71.60
10312;DHT22;5201;48.776;9.128;2023-05-29T15:44:57;24.80;71.70
10312;DHT22;5201;48.776;9.128;2023-05-29T15:47:23;24.70;71.40
10312;DHT22;5201;48.776;9.128;2023-05-29T15:49:49;24.60;71.70
10312;DHT22;5201;48.776;9.128;2023-05-29T15:52:14;24.60;72.20
10312;DHT22;5201;48.776;9.128;2023-05-29T15:54:40;24.70;71.60
10312;DHT22;5201;48.776;9.128;2023-05-29T15:57:06;24.70;70.50
10312;DHT22;5201;48.776;9.128;2023-05-29T15:59:32;24.60;70.70
10312;DHT22;5201;48.776;9.128;2023-05-29T16:01:59;24.70;71.30
10312;DHT22;5201;48.776;9.128;2023-05-29T16:04:26;24.70;71.00
10312;DHT22;5201;48.776;9.128;2023-05-29T16:06:52;24.70;70.80
10312;DHT22;5201;48.776;9.128;2023-05-29T16:09:17;24.70;71.00
10312;DHT22;5201;48.776;9.128;2023-05-29T16:11:43;24.70;71.00
10312;DHT22;5201;48.776;9.128;2023-05-29T16:14:09;24.50;70.90